Time;durP1;ratioP1;P1;durP2;ratioP2;P2;SDS_P1;SDS_P2;PMS_P1;PMS_P2;Temp;Humidity;BMP_temperature;BMP_pressure;BME280_temperature;BME280_humidity;BME280_pressure;Samples;Min_cycle;Max_cycle;Signal;HPM_P1;HPM_P2
2024/04/06 00:02:15;;;;;;;6.75;2.45;;;15.00;99.90;;;;;;5036349;28;20078;-70
2024/04/06 00:04:41;;;;;;;4.05;2.42;;;15.00;99.90;;;;;;5036099;28;20099;-70
2024/04/06 00:07:08;;;;;;;3.10;2.25;;;14.90;99.90;;;;;;5035812;28;20037;-70
2024/04/06 00:09:34;;;;;;;6.90;2.42;;;14.90;99.90;;;;;;5036132;28;20021;-70
2024/04/06 00:11:59;;;;;;;5.43;2.25;;;15.00;99.90;;;;;;5036101;28;20021;-70
2024/04/06 00:14:25;;;;;;;4.57;2.25;;;15.00;99.90;;;;;;5036413;28;20136;-71
2024/04/06 00:16:50;;;;;;;4.13;2.28;;;14.90;99.90;;;;;;5036123;28;20033;-70
2024/04/06 00:19:16;;;;;;;3.15;2.20;;;14.90;99.90;;;;;;5035916;28;20040;-70
2024/04/06 00:21:41;;;;;;;4.30;2.00;;;15.00;99.90;;;;;;5035704;28;20029;-70
2024/04/06 00:24:07;;;;;;;3.15;1.75;;;15.00;99.90;;;;;;5035902;28;20369;-70
2024/04/06 00:26:32;;;;;;;2.95;2.00;;;15.00;99.90;;;;;;5035919;28;20021;-70
2024/04/06 00:28:58;;;;;;;4.50;1.60;;;15.00;99.90;;;;;;5035906;28;20116;-70
2024/04/06 00:31:23;;;;;;;5.57;2.05;;;15.00;99.90;;;;;;5035727;28;20037;-70
2024/04/06 00:33:49;;;;;;;6.63;1.77;;;15.10;99.20;;;;;;5035652;28;20117;-70
2024/04/06 00:36:14;;;;;;;4.97;2.17;;;15.10;98.10;;;;;;5035584;28;20057;-70
2024/04/06 00:38:40;;;;;;;2.97;1.92;;;15.10;98.30;;;;;;5035417;28;20203;-70
2024/04/06 00:41:06;;;;;;;4.07;1.95;;;15.00;98.20;;;;;;5035355;28;20029;-70
2024/04/06 00:43:32;;;;;;;3.53;1.67;;;15.00;99.30;;;;;;5035574;28;20033;-70
2024/04/06 00:45:58;;;;;;;4.15;1.60;;;15.00;98.00;;;;;;5035537;28;20127;-70
2024/04/06 00:48:23;;;;;;;3.42;1.63;;;14.90;98.80;;;;;;5035492;28;20053;-70
2024/04/06 00:50:51;;;;;;;3.75;2.08;;;14.80;99.50;;;;;;5034924;28;20392;-70
2024/04/06 00:53:17;;;;;;;4.03;1.77;;;14.80;99.90;;;;;;5035369;28;20041;-71
2024/04/06 00:55:43;;;;;;;6.22;2.25;;;14.70;99.90;;;;;;5035247;28;20028;-71
2024/04/06 00:58:09;;;;;;;3.42;2.03;;;14.70;99.90;;;;;;5035334;28;20108;-70
2024/04/06 01:00:34;;;;;;;4.78;2.13;;;14.60;99.90;;;;;;5035123;28;20033;-70
2024/04/06 01:03:00;;;;;;;4.00;1.88;;;14.50;99.90;;;;;;5035244;28;20519;-70
2024/04/06 01:05:25;;;;;;;4.47;2.25;;;14.30;99.90;;;;;;5035221;28;20056;-70
2024/04/06 01:07:51;;;;;;;3.65;1.83;;;14.30;99.90;;;;;;5034750;28;20025;-71
2024/04/06 01:10:17;;;;;;;3.80;1.90;;;14.20;99.90;;;;;;5034593;28;20044;-70
2024/04/06 01:12:43;;;;;;;4.20;2.05;;;14.20;99.90;;;;;;5034674;28;20029;-70
2024/04/06 01:15:09;;;;;;;5.43;2.00;;;14.00;99.90;;;;;;5034990;28;20034;-71
2024/04/06 01:17:34;;;;;;;3.75;1.92;;;13.90;99.90;;;;;;5034583;28;20033;-70
2024/04/06 01:20:00;;;;;;;4.35;1.85;;;13.90;99.90;;;;;;5034825;28;20030;-70
2024/04/06 01:22:25;;;;;;;4.35;1.77;;;13.90;99.90;;;;;;5034438;28;20025;-70
2024/04/06 01:24:51;;;;;;;2.90;2.08;;;13.80;99.90;;;;;;5034396;28;20103;-70
2024/04/06 01:27:17;;;;;;;5.03;2.08;;;13.60;99.90;;;;;;5034665;28;20025;-70
2024/04/06 01:29:42;;;;;;;3.58;1.50;;;13.60;99.90;;;;;;5034239;28;20440;-71
2024/04/06 01:32:08;;;;;;;5.47;2.17;;;13.50;99.90;;;;;;5034645;28;20025;-70
2024/04/06 01:34:33;;;;;;;5.07;2.22;;;13.40;99.90;;;;;;5034577;28;20108;-70
2024/04/06 01:36:59;;;;;;;3.90;2.13;;;13.40;99.90;;;;;;5034221;28;20017;-70
2024/04/06 01:39:24;;;;;;;3.85;2.10;;;13.40;99.90;;;;;;5034228;28;20519;-70
2024/04/06 01:41:50;;;;;;;3.60;1.90;;;13.50;99.90;;;;;;5034010;28;20096;-70
2024/04/06 01:44:15;;;;;;;3.97;1.73;;;13.50;99.90;;;;;;5034289;28;20053;-70
2024/04/06 01:46:41;;;;;;;3.60;1.65;;;13.60;99.90;;;;;;5034334;28;20026;-70
2024/04/06 01:49:07;;;;;;;3.53;1.80;;;13.60;99.90;;;;;;5034238;28;20087;-70
2024/04/06 01:51:33;;;;;;;2.30;1.52;;;13.50;99.90;;;;;;5033874;28;20083;-70
2024/04/06 01:53:58;;;;;;;3.10;1.55;;;13.40;99.90;;;;;;5034151;28;20037;-70
2024/04/06 01:56:26;;;;;;;5.60;2.08;;;13.50;99.90;;;;;;5033824;28;20025;-70
2024/04/06 01:58:52;;;;;;;4.05;1.90;;;13.40;99.90;;;;;;5033723;28;20116;-70
2024/04/06 02:01:17;;;;;;;4.03;2.30;;;13.40;99.90;;;;;;5033094;28;20076;-70
2024/04/06 02:03:43;;;;;;;3.30;1.77;;;13.40;99.90;;;;;;5034066;28;20033;-70
2024/04/06 02:06:09;;;;;;;4.05;2.45;;;13.40;99.90;;;;;;5033975;28;20041;-70
2024/04/06 02:08:35;;;;;;;4.47;1.80;;;13.40;99.90;;;;;;5033937;28;20033;-70
2024/04/06 02:11:01;;;;;;;2.40;1.88;;;13.40;99.90;;;;;;5033938;28;20040;-70
2024/04/06 02:13:27;;;;;;;5.60;1.95;;;13.40;99.90;;;;;;5033979;28;20029;-71
2024/04/06 02:15:54;;;;;;;4.00;2.08;;;13.40;99.90;;;;;;5033525;28;20494;-70
2024/04/06 02:18:19;;;;;;;5.13;2.05;;;13.40;99.90;;;;;;5033730;28;20029;-70
2024/04/06 02:20:45;;;;;;;5.07;2.47;;;13.40;99.90;;;;;;5033574;28;20142;-70
2024/04/06 02:23:10;;;;;;;4.45;2.28;;;13.40;99.90;;;;;;5033312;28;20083;-70
2024/04/06 02:25:36;;;;;;;5.03;1.95;;;13.40;99.90;;;;;;5033787;28;20029;-70
2024/04/06 02:28:02;;;;;;;2.92;1.90;;;13.40;99.90;;;;;;5033594;28;20033;-71
2024/04/06 02:30:27;;;;;;;2.78;1.95;;;13.30;99.90;;;;;;5033690;28;20044;-70
2024/04/06 02:32:53;;;;;;;3.40;2.22;;;13.30;99.90;;;;;;5033643;28;20037;-70
2024/04/06 02:35:18;;;;;;;4.97;2.13;;;13.20;99.90;;;;;;5033550;28;20038;-71
2024/04/06 02:37:45;;;;;;;4.85;1.95;;;13.20;99.90;;;;;;5033441;28;20489;-70
2024/04/06 02:40:11;;;;;;;5.20;2.38;;;13.10;99.90;;;;;;5033084;28;20403;-71
2024/04/06 02:42:37;;;;;;;4.78;2.45;;;13.00;99.90;;;;;;5033475;28;20029;-71
2024/04/06 02:45:03;;;;;;;4.47;2.17;;;13.00;99.90;;;;;;5033479;28;20026;-70
2024/04/06 02:47:29;;;;;;;3.15;2.17;;;12.90;99.90;;;;;;5033100;28;20400;-70
2024/04/06 02:49:55;;;;;;;6.60;2.47;;;12.80;99.90;;;;;;5033572;28;20032;-70
2024/04/06 02:52:20;;;;;;;2.88;1.90;;;12.80;99.90;;;;;;5033298;28;20028;-71
2024/04/06 02:54:47;;;;;;;4.95;1.95;;;12.70;99.90;;;;;;5032934;28;20021;-70
2024/04/06 02:57:13;;;;;;;4.47;2.20;;;12.70;99.90;;;;;;5033258;28;20028;-70
2024/04/06 02:59:39;;;;;;;3.97;2.10;;;12.70;99.90;;;;;;5033283;28;20029;-70
2024/04/06 03:02:05;;;;;;;5.05;2.30;;;12.70;99.90;;;;;;5032996;28;20072;-70
2024/04/06 03:04:31;;;;;;;3.25;2.38;;;12.70;99.90;;;;;;5033352;28;20030;-70
2024/04/06 03:06:57;;;;;;;3.00;1.90;;;12.80;99.90;;;;;;5033283;28;20071;-70
2024/04/06 03:09:22;;;;;;;4.30;2.10;;;12.80;99.90;;;;;;5033219;28;20040;-71
2024/04/06 03:11:48;;;;;;;3.03;2.53;;;12.80;99.90;;;;;;5032705;28;20061;-70
2024/04/06 03:14:13;;;;;;;4.53;2.25;;;12.80;99.90;;;;;;5036032;28;20037;-70
2024/04/06 03:16:38;;;;;;;3.90;2.10;;;12.90;99.90;;;;;;5037178;28;20056;-71
2024/04/06 03:19:04;;;;;;;3.60;2.25;;;12.90;99.90;;;;;;5037143;28;20034;-70
2024/04/06 03:21:30;;;;;;;4.63;2.55;;;13.10;99.90;;;;;;5036644;28;20079;-70
2024/04/06 03:23:56;;;;;;;5.53;2.50;;;13.10;99.90;;;;;;5037109;28;20029;-70
2024/04/06 03:26:21;;;;;;;4.80;2.67;;;13.10;99.90;;;;;;5036904;28;20032;-71
2024/04/06 03:28:47;;;;;;;4.25;2.55;;;13.20;99.90;;;;;;5036908;28;20029;-70
2024/04/06 03:31:13;;;;;;;6.80;2.38;;;13.20;99.90;;;;;;5036343;28;20076;-70
2024/04/06 03:33:38;;;;;;;3.63;2.05;;;13.20;99.90;;;;;;5036828;28;20033;-70
2024/04/06 03:36:05;;;;;;;4.05;2.30;;;13.20;99.90;;;;;;5036779;28;20456;-70
2024/04/06 03:38:31;;;;;;;6.25;3.20;;;13.20;99.90;;;;;;5036508;28;20116;-71
2024/04/06 03:40:56;;;;;;;7.85;2.60;;;13.10;99.90;;;;;;5036655;28;20115;-69
2024/04/06 03:43:22;;;;;;;4.95;2.40;;;13.00;99.90;;;;;;5036559;28;20032;-69
2024/04/06 03:45:48;;;;;;;6.43;2.88;;;13.40;99.90;;;;;;5036589;28;20430;-68
2024/04/06 03:48:13;;;;;;;4.55;2.88;;;12.90;99.90;;;;;;5036462;28;20068;-69
2024/04/06 03:50:39;;;;;;;5.18;2.70;;;13.00;99.90;;;;;;5036096;28;20029;-69
2024/04/06 03:53:05;;;;;;;5.65;2.55;;;13.00;99.90;;;;;;5036530;28;20029;-69
2024/04/06 03:55:30;;;;;;;4.20;2.38;;;13.10;99.90;;;;;;5036531;28;20075;-69
2024/04/06 03:57:56;;;;;;;3.58;2.05;;;13.10;99.90;;;;;;5036575;28;20037;-69
2024/04/06 04:00:22;;;;;;;6.72;2.53;;;13.20;99.90;;;;;;5035886;28;20029;-69
2024/04/06 04:02:47;;;;;;;5.18;2.55;;;13.60;99.90;;;;;;5035894;28;20108;-69
2024/04/06 04:05:13;;;;;;;4.55;2.50;;;13.20;99.90;;;;;;5035815;28;20021;-69
2024/04/06 04:07:38;;;;;;;6.22;2.50;;;13.20;99.90;;;;;;5036177;28;20103;-69
2024/04/06 04:10:07;;;;;;;4.47;2.55;;;13.10;99.90;;;;;;5036174;28;20025;-70
2024/04/06 04:12:33;;;;;;;4.70;2.45;;;13.00;99.90;;;;;;5036161;28;20056;-70
2024/04/06 04:15:01;;;;;;;6.35;2.53;;;13.00;99.90;;;;;;5035762;28;20047;-69
2024/04/06 04:17:26;;;;;;;3.88;2.17;;;12.90;99.90;;;;;;5036106;28;20113;-69
2024/04/06 04:19:52;;;;;;;6.55;2.70;;;13.00;99.90;;;;;;5035533;28;20455;-69
2024/04/06 04:22:18;;;;;;;4.55;2.50;;;12.90;99.90;;;;;;5035605;28;20116;-69
2024/04/06 04:24:43;;;;;;;5.40;2.67;;;12.90;99.90;;;;;;5035073;28;20049;-69
2024/04/06 04:27:09;;;;;;;6.38;2.90;;;12.80;99.90;;;;;;5035826;28;20483;-69
2024/04/06 04:29:35;;;;;;;4.80;2.60;;;12.90;99.90;;;;;;5035914;28;20021;-69
2024/04/06 04:32:00;;;;;;;5.68;2.75;;;13.30;99.90;;;;;;5035670;28;20132;-69
2024/04/06 04:34:26;;;;;;;4.90;2.65;;;12.70;99.90;;;;;;5035467;28;20026;-69
2024/04/06 04:36:51;;;;;;;3.58;2.60;;;12.70;99.90;;;;;;5035622;28;20065;-69
2024/04/06 04:39:17;;;;;;;6.93;3.20;;;12.70;99.90;;;;;;5035050;28;20087;-69
2024/04/06 04:41:43;;;;;;;4.32;2.78;;;12.60;99.90;;;;;;5035056;28;20061;-69
2024/04/06 04:44:08;;;;;;;5.82;2.63;;;12.60;99.90;;;;;;5035230;28;20079;-69
2024/04/06 04:46:34;;;;;;;8.80;3.40;;;12.50;99.90;;;;;;5035642;28;20029;-69
2024/04/06 04:49:00;;;;;;;5.80;3.30;;;12.60;99.90;;;;;;5035003;28;20360;-69
2024/04/06 04:51:26;;;;;;;5.70;2.75;;;12.50;99.90;;;;;;5035120;28;20033;-70
2024/04/06 04:53:52;;;;;;;3.88;2.63;;;12.60;99.90;;;;;;5034922;28;20025;-69
2024/04/06 04:56:19;;;;;;;4.07;2.88;;;12.50;99.90;;;;;;5034927;28;20025;-69
2024/04/06 04:58:46;;;;;;;6.72;2.63;;;12.40;99.90;;;;;;5035246;28;20026;-69
2024/04/06 05:01:11;;;;;;;7.05;2.78;;;12.40;99.90;;;;;;5034996;28;20037;-69
2024/04/06 05:03:37;;;;;;;6.68;3.00;;;12.40;99.90;;;;;;5034838;28;20433;-69
2024/04/06 05:06:03;;;;;;;4.30;2.63;;;12.10;99.90;;;;;;5034680;28;20455;-70
2024/04/06 05:08:29;;;;;;;5.03;2.63;;;12.50;99.90;;;;;;5035186;28;20036;-70
2024/04/06 05:10:55;;;;;;;5.55;2.65;;;12.50;99.90;;;;;;5035132;28;20029;-70
2024/04/06 05:13:21;;;;;;;5.70;2.65;;;12.50;99.90;;;;;;5034928;28;20034;-69
2024/04/06 05:15:48;;;;;;;9.48;2.92;;;12.60;99.90;;;;;;5034511;28;20391;-69
2024/04/06 05:18:14;;;;;;;4.25;2.55;;;12.70;99.90;;;;;;5034847;28;20061;-69
2024/04/06 05:20:49;;;;;;;5.18;2.55;;;12.80;99.90;;;;;;5034739;28;20560;-69
2024/04/06 05:23:15;;;;;;;5.57;2.63;;;13.00;99.90;;;;;;5034377;28;20021;-70
2024/04/06 05:25:40;;;;;;;3.88;2.45;;;13.20;99.90;;;;;;5034580;28;20112;-69
2024/04/06 05:28:06;;;;;;;5.22;2.63;;;13.50;99.90;;;;;;5034215;28;20030;-69
2024/04/06 05:30:31;;;;;;;7.93;2.40;;;13.50;99.90;;;;;;5034379;28;20037;-69
2024/04/06 05:32:57;;;;;;;3.70;2.10;;;14.00;99.90;;;;;;5034371;28;20121;-69
2024/04/06 05:35:23;;;;;;;2.50;2.10;;;13.80;99.90;;;;;;5034416;28;20029;-70
2024/04/06 05:37:48;;;;;;;4.32;1.88;;;14.00;99.90;;;;;;5034528;28;20037;-69
2024/04/06 05:40:14;;;;;;;3.78;1.95;;;14.20;99.90;;;;;;5033825;28;20136;-69
2024/04/06 05:42:39;;;;;;;3.13;2.00;;;14.30;99.90;;;;;;5034456;28;20029;-70
2024/04/06 05:45:07;;;;;;;8.07;2.30;;;14.60;99.90;;;;;;5033924;28;20018;-70
2024/04/06 05:47:34;;;;;;;5.28;1.98;;;14.80;99.90;;;;;;5034326;28;20080;-70
2024/04/06 05:50:00;;;;;;;3.05;1.70;;;14.70;99.90;;;;;;5034332;28;20025;-70
2024/04/06 05:52:25;;;;;;;2.90;1.73;;;15.50;99.90;;;;;;5034283;28;20034;-70
2024/04/06 05:54:51;;;;;;;4.70;1.65;;;16.00;99.90;;;;;;5034173;28;20029;-70
2024/04/06 05:57:17;;;;;;;3.50;1.73;;;16.80;99.90;;;;;;5034119;28;20029;-70
2024/04/06 05:59:42;;;;;;;4.50;1.65;;;17.70;99.90;;;;;;5034035;28;20471;-70
2024/04/06 06:02:08;;;;;;;2.22;1.33;;;18.40;17.70;;;;;;5033680;28;20117;-70
2024/04/06 06:04:34;;;;;;;1.95;1.60;;;18.70;1.00;;;;;;5034202;28;20025;-70
2024/04/06 06:06:59;;;;;;;3.10;1.60;;;18.60;1.00;;;;;;5034147;28;20383;-70
2024/04/06 06:09:28;;;;;;;2.90;1.73;;;19.40;1.00;;;;;;5033524;28;20021;-70
2024/04/06 06:11:53;;;;;;;7.18;1.75;;;20.10;99.90;;;;;;5033881;28;20417;-70
2024/04/06 06:14:22;;;;;;;4.50;1.30;;;20.80;99.90;;;;;;5033829;28;20033;-71
2024/04/06 06:16:47;;;;;;;2.03;1.33;;;21.20;1.00;;;;;;5033840;28;20025;-70
2024/04/06 06:19:13;;;;;;;2.90;1.20;;;21.50;99.90;;;;;;5033815;28;20037;-71
2024/04/06 06:21:38;;;;;;;3.90;1.55;;;21.80;99.90;;;;;;5033313;28;20025;-71
2024/04/06 06:24:04;;;;;;;2.08;1.40;;;22.30;99.90;;;;;;5033794;28;20489;-71
2024/04/06 06:26:30;;;;;;;3.92;1.50;;;22.10;99.90;;;;;;5033741;28;20022;-70
2024/04/06 06:28:56;;;;;;;4.30;1.50;;;22.20;11.80;;;;;;5033656;28;20057;-69
2024/04/06 06:31:21;;;;;;;3.88;1.17;;;22.50;99.90;;;;;;5033161;28;20076;-69
2024/04/06 06:33:48;;;;;;;5.50;1.70;;;;;;;;;;5033561;28;20036;-70
2024/04/06 06:36:14;;;;;;;2.97;1.63;;;;;;;;;;5033515;28;20017;-70
2024/04/06 06:38:41;;;;;;;3.05;1.50;;;22.60;99.90;;;;;;5033431;28;20160;-70
2024/04/06 06:41:07;;;;;;;5.63;1.98;;;22.30;99.90;;;;;;5032957;28;20424;-69
2024/04/06 06:43:33;;;;;;;2.72;1.60;;;;;;;;;;5033481;28;20115;-70
2024/04/06 06:45:59;;;;;;;5.65;1.63;;;;;;;;;;5033545;28;20025;-69
2024/04/06 06:48:24;;;;;;;2.38;1.30;;;21.80;99.90;;;;;;5033040;28;20022;-70
2024/04/06 06:50:50;;;;;;;3.17;1.70;;;21.70;99.90;;;;;;5033320;28;20032;-71
2024/04/06 06:53:16;;;;;;;5.07;1.70;;;21.60;99.90;;;;;;5032927;28;20485;-70
2024/04/06 06:55:44;;;;;;;3.55;1.48;;;21.70;99.90;;;;;;5033062;28;20025;-71
2024/04/06 06:58:10;;;;;;;5.18;1.80;;;;;;;;;;5033326;28;20036;-71
2024/04/06 07:00:36;;;;;;;5.80;1.85;;;20.30;99.90;;;;;;5033316;28;20113;-71
2024/04/06 07:03:01;;;;;;;3.90;1.50;;;21.40;99.90;;;;;;5032749;28;20044;-71
2024/04/06 07:05:27;;;;;;;3.72;1.90;;;21.50;99.90;;;;;;5033355;28;20472;-71
2024/04/06 07:07:55;;;;;;;3.72;2.08;;;22.40;99.90;;;;;;5032709;28;20032;-71
2024/04/06 07:10:20;;;;;;;3.83;1.60;;;23.10;1.00;;;;;;5033267;28;20391;-71
2024/04/06 07:12:46;;;;;;;3.33;1.33;;;22.50;99.90;;;;;;5033106;28;20032;-72
2024/04/06 07:15:12;;;;;;;4.28;1.70;;;22.70;99.90;;;;;;5032670;28;20060;-71
2024/04/06 07:17:38;;;;;;;4.90;1.90;;;23.40;99.90;;;;;;5033252;28;20483;-71
2024/04/06 07:20:04;;;;;;;2.05;1.52;;;23.90;1.00;;;;;;5033151;28;20057;-71
2024/04/06 07:22:29;;;;;;;2.70;1.85;;;24.90;1.00;;;;;;5032536;28;20079;-71
2024/04/06 07:24:55;;;;;;;5.07;1.80;;;24.90;1.00;;;;;;5033096;28;20032;-71
2024/04/06 07:27:20;;;;;;;3.10;2.03;;;25.00;99.90;;;;;;5033016;28;20048;-71
2024/04/06 07:29:47;;;;;;;3.47;2.00;;;25.30;99.90;;;;;;5032616;28;20048;-71
2024/04/06 07:32:13;;;;;;;4.55;2.03;;;25.80;99.90;;;;;;5032962;28;20394;-71
2024/04/06 07:34:38;;;;;;;4.13;1.88;;;26.40;42.90;;;;;;5032493;28;20124;-71
2024/04/06 07:37:04;;;;;;;5.15;1.50;;;25.70;9.50;;;;;;5032682;28;20120;-71
2024/04/06 07:39:30;;;;;;;2.38;1.45;;;24.70;99.90;;;;;;5032646;28;20091;-70
2024/04/06 07:41:56;;;;;;;5.05;1.45;;;24.70;99.90;;;;;;5032341;28;20025;-70
2024/04/06 07:44:21;;;;;;;3.20;1.70;;;23.90;1.00;;;;;;5032460;28;20029;-70
2024/04/06 07:46:47;;;;;;;3.80;1.63;;;24.50;99.90;;;;;;5032868;28;20034;-70
2024/04/06 07:49:13;;;;;;;4.47;1.77;;;24.40;99.90;;;;;;5032863;28;20386;-70
2024/04/06 07:51:41;;;;;;;4.85;1.63;;;24.00;1.00;;;;;;5032437;28;20071;-70
2024/04/06 07:54:07;;;;;;;3.63;2.15;;;23.40;99.90;;;;;;5032809;28;20483;-70
2024/04/06 07:56:33;;;;;;;2.30;1.50;;;23.20;99.90;;;;;;5032750;28;20391;-70
2024/04/06 07:58:59;;;;;;;6.10;2.05;;;22.60;99.90;;;;;;5032886;28;20037;-70
2024/04/06 08:01:26;;;;;;;3.05;1.90;;;22.90;99.90;;;;;;5035438;28;20053;-70
2024/04/06 08:03:51;;;;;;;3.33;1.60;;;23.70;99.90;;;;;;5035946;28;20021;-70
2024/04/06 08:06:18;;;;;;;2.97;1.52;;;23.50;99.90;;;;;;5036388;28;20051;-70
2024/04/06 08:08:44;;;;;;;5.03;1.63;;;24.40;99.50;;;;;;5036232;28;20617;-70
2024/04/06 08:11:11;;;;;;;3.08;1.77;;;24.50;99.90;;;;;;5035852;28;20084;-70
2024/04/06 08:13:37;;;;;;;4.38;1.90;;;24.10;1.00;;;;;;5036205;28;20485;-70
2024/04/06 08:16:03;;;;;;;3.97;1.70;;;24.30;1.00;;;;;;5035691;28;20061;-70
2024/04/06 08:18:28;;;;;;;4.25;1.48;;;24.30;1.00;;;;;;5035512;28;20025;-69
2024/04/06 08:20:54;;;;;;;3.40;1.55;;;25.20;99.90;;;;;;5035440;28;20033;-70
2024/04/06 08:23:21;;;;;;;2.63;1.50;;;;;;;;;;5036090;28;20017;-70
2024/04/06 08:25:48;;;;;;;4.07;1.35;;;26.40;1.00;;;;;;5035514;28;20442;-69
2024/04/06 08:28:15;;;;;;;3.72;1.70;;;26.20;1.00;;;;;;5035885;28;20084;-70
2024/04/06 08:30:41;;;;;;;3.95;1.45;;;26.20;1.00;;;;;;5035494;28;20033;-70
2024/04/06 08:33:07;;;;;;;3.70;1.63;;;26.70;1.00;;;;;;5035792;28;20043;-71
2024/04/06 08:35:37;;;;;;;2.90;1.40;;;26.70;1.00;;;;;;5035355;28;20021;-71
2024/04/06 08:38:05;;;;;;;4.50;1.83;;;26.50;1.00;;;;;;5035728;28;20506;-71
2024/04/06 08:40:30;;;;;;;4.15;1.38;;;26.60;1.00;;;;;;5035207;28;20049;-69
2024/04/06 08:43:02;;;;;;;5.70;1.75;;;27.00;1.00;;;;;;5035493;28;20029;-70
2024/04/06 08:45:29;;;;;;;2.05;1.40;;;27.30;1.00;;;;;;5035437;28;20503;-70
2024/04/06 08:47:55;;;;;;;3.05;1.40;;;28.20;1.00;;;;;;5035433;28;20026;-71
2024/04/06 08:50:21;;;;;;;2.47;1.35;;;27.20;99.90;;;;;;5035448;28;20396;-71
2024/04/06 08:52:47;;;;;;;2.50;1.40;;;26.80;1.00;;;;;;5035342;28;20025;-69
2024/04/06 08:55:13;;;;;;;3.50;1.60;;;26.80;1.00;;;;;;5035451;28;20029;-69
2024/04/06 08:57:40;;;;;;;5.82;1.70;;;26.40;1.00;;;;;;5035465;28;20028;-69
2024/04/06 09:00:10;;;;;;;5.85;1.52;;;26.10;1.00;;;;;;5034812;28;20030;-69
2024/04/06 09:02:36;;;;;;;5.00;1.42;;;26.70;99.90;;;;;;5034901;28;20088;-70
2024/04/06 09:05:03;;;;;;;3.20;1.20;;;27.10;99.90;;;;;;5035225;28;20021;-70
2024/04/06 09:07:29;;;;;;;3.03;1.70;;;27.50;99.90;;;;;;5035168;28;20049;-70
2024/04/06 09:09:55;;;;;;;6.47;1.60;;;27.60;99.90;;;;;;5035002;28;20502;-69
2024/04/06 09:12:21;;;;;;;5.57;1.73;;;27.50;1.00;;;;;;5034709;28;20034;-69
2024/04/06 09:14:47;;;;;;;4.18;1.58;;;28.10;1.00;;;;;;5034965;28;20122;-69
2024/04/06 09:17:14;;;;;;;2.70;1.45;;;27.90;1.00;;;;;;5034996;28;20112;-69
2024/04/06 09:19:41;;;;;;;2.85;1.30;;;27.50;1.00;;;;;;5034561;28;20025;-69
2024/04/06 09:22:07;;;;;;;3.42;1.52;;;27.40;99.90;;;;;;5034520;28;20102;-69
2024/04/06 09:24:32;;;;;;;5.35;1.70;;;28.20;1.00;;;;;;5034928;28;20216;-69
2024/04/06 09:27:12;;;;;;;3.70;1.48;;;27.50;1.00;;;;;;5034659;28;20032;-70
2024/04/06 09:29:46;;;;;;;3.50;1.75;;;27.50;1.00;;;;;;5034682;28;20029;-70
2024/04/06 09:32:14;;;;;;;2.40;1.42;;;26.90;1.00;;;;;;5034158;28;20065;-70
2024/04/06 09:34:48;;;;;;;2.25;1.58;;;26.40;1.00;;;;;;5034278;28;20033;-70
2024/04/06 09:37:19;;;;;;;3.50;1.60;;;26.70;1.00;;;;;;5034559;28;20025;-69
2024/04/06 09:39:45;;;;;;;4.88;1.63;;;26.80;1.00;;;;;;5033925;28;20044;-69
2024/04/06 09:42:12;;;;;;;3.75;1.60;;;27.90;1.00;;;;;;5034033;28;20038;-69
2024/04/06 09:44:38;;;;;;;2.70;1.52;;;28.10;1.00;;;;;;5034516;28;20029;-69
2024/04/06 09:47:05;;;;;;;4.60;1.52;;;27.80;1.00;;;;;;5034442;28;20029;-69
2024/04/06 09:49:31;;;;;;;2.92;1.50;;;28.00;99.90;;;;;;5034294;28;20026;-69
2024/04/06 09:51:58;;;;;;;4.00;1.50;;;28.30;99.90;;;;;;5033959;28;20040;-69
2024/04/06 09:54:23;;;;;;;4.22;1.73;;;28.60;1.00;;;;;;5033747;28;20029;-70
2024/04/06 09:56:49;;;;;;;3.65;1.60;;;28.40;99.90;;;;;;5034111;28;20036;-70
2024/04/06 09:59:23;;;;;;;2.33;1.60;;;27.50;99.90;;;;;;5033760;28;20022;-70
2024/04/06 10:01:52;;;;;;;8.10;1.60;;;27.60;1.00;;;;;;5033920;28;20029;-70
2024/04/06 10:04:38;;;;;;;4.53;1.58;;;27.40;1.00;;;;;;5034066;28;20025;-71
2024/04/06 10:07:05;;;;;;;3.05;1.60;;;28.10;1.00;;;;;;5033643;28;20025;-70
2024/04/06 10:09:31;;;;;;;2.40;1.40;;;28.20;1.00;;;;;;5034081;28;20083;-70
2024/04/06 10:11:59;;;;;;;4.10;1.50;;;28.80;1.00;;;;;;5033548;28;20392;-71
2024/04/06 10:14:26;;;;;;;3.65;1.60;;;28.50;1.00;;;;;;5033891;28;20083;-70
2024/04/06 10:17:04;;;;;;;2.97;1.92;;;28.30;99.90;;;;;;5033880;28;20033;-70
2024/04/06 10:19:30;;;;;;;2.13;1.42;;;28.90;99.90;;;;;;5033972;28;20056;-70
2024/04/06 10:22:03;;;;;;;2.88;1.60;;;29.30;99.90;;;;;;5033153;28;20076;-70
2024/04/06 10:24:29;;;;;;;4.75;1.30;;;28.10;99.90;;;;;;5033529;28;20049;-70
2024/04/06 10:26:56;;;;;;;3.83;1.45;;;28.10;99.90;;;;;;5033770;28;20064;-71
2024/04/06 10:29:23;;;;;;;5.28;1.65;;;27.30;99.90;;;;;;5033599;28;20038;-70
2024/04/06 10:31:49;;;;;;;4.22;1.60;;;27.20;99.90;;;;;;5033204;28;20053;-71
2024/04/06 10:34:16;;;;;;;3.95;1.30;;;27.70;99.90;;;;;;5033636;28;20503;-70
2024/04/06 10:36:42;;;;;;;3.72;1.48;;;28.00;99.90;;;;;;5033641;28;20040;-70
2024/04/06 10:39:08;;;;;;;3.10;1.33;;;27.90;99.90;;;;;;5033259;28;20526;-70
2024/04/06 10:41:38;;;;;;;3.63;1.63;;;28.50;99.90;;;;;;5033423;28;20451;-71
2024/04/06 10:44:05;;;;;;;2.58;1.20;;;28.50;99.90;;;;;;5033592;28;20116;-69
2024/04/06 10:46:30;;;;;;;5.18;1.73;;;28.80;1.00;;;;;;5032927;28;20068;-71
2024/04/06 10:48:56;;;;;;;3.50;1.50;;;28.40;99.90;;;;;;5033204;28;20049;-70
2024/04/06 10:51:22;;;;;;;3.35;1.40;;;27.70;1.00;;;;;;5033325;28;20522;-70
2024/04/06 10:53:48;;;;;;;3.80;1.27;;;27.90;99.90;;;;;;5033177;28;20033;-70
2024/04/06 10:56:13;;;;;;;2.67;1.75;;;28.30;99.90;;;;;;5033251;28;20060;-70
2024/04/06 10:58:39;;;;;;;2.95;1.45;;;29.00;99.90;;;;;;5032840;28;20022;-70
2024/04/06 11:01:17;;;;;;;3.97;1.63;;;28.70;99.90;;;;;;5033246;28;20041;-70
2024/04/06 11:03:46;;;;;;;2.67;1.30;;;28.20;99.90;;;;;;5033214;28;20067;-70
2024/04/06 11:06:12;;;;;;;2.65;1.60;;;27.90;99.90;;;;;;5033317;28;20049;-70
2024/04/06 11:08:40;;;;;;;2.85;1.30;;;27.20;99.90;;;;;;5032866;28;20018;-70
2024/04/06 11:11:08;;;;;;;3.17;1.50;;;26.80;99.90;;;;;;5033232;28;20036;-70
2024/04/06 11:13:38;;;;;;;3.78;1.50;;;26.40;99.90;;;;;;5033224;28;20029;-70
2024/04/06 11:16:04;;;;;;;2.15;1.50;;;26.50;99.90;;;;;;5032847;28;20116;-70
2024/04/06 11:18:39;;;;;;;3.03;1.60;;;26.70;99.90;;;;;;5033064;28;20068;-70
2024/04/06 11:21:09;;;;;;;4.25;1.40;;;26.70;99.90;;;;;;5032877;28;20026;-71
2024/04/06 11:23:35;;;;;;;3.25;1.67;;;26.80;99.90;;;;;;5032818;28;20140;-70
2024/04/06 11:26:01;;;;;;;2.42;1.50;;;26.70;99.90;;;;;;5033272;28;20018;-71
2024/04/06 11:28:27;;;;;;;5.25;1.65;;;26.60;99.90;;;;;;5032941;28;20453;-70
2024/04/06 11:30:53;;;;;;;3.08;1.30;;;26.40;99.90;;;;;;5033003;28;20069;-70
2024/04/06 11:33:19;;;;;;;2.70;1.50;;;26.40;99.90;;;;;;5032712;28;20112;-70
2024/04/06 11:35:44;;;;;;;5.43;1.70;;;26.50;99.90;;;;;;5036742;28;20033;-70
2024/04/06 11:38:10;;;;;;;2.08;1.33;;;26.40;99.90;;;;;;5036718;28;20031;-70
2024/04/06 11:40:36;;;;;;;2.92;1.63;;;26.70;99.90;;;;;;5036313;28;20056;-70
2024/04/06 11:43:01;;;;;;;2.35;1.23;;;27.00;99.90;;;;;;5036721;28;20469;-69
2024/04/06 11:45:27;;;;;;;3.30;1.40;;;27.10;99.90;;;;;;5036643;28;20029;-69
2024/04/06 11:47:54;;;;;;;3.28;1.40;;;27.20;99.90;;;;;;5036585;28;20079;-69
2024/04/06 11:50:20;;;;;;;2.83;1.60;;;27.40;99.90;;;;;;5036608;28;20479;-69
2024/04/06 11:52:45;;;;;;;2.13;1.40;;;27.50;99.90;;;;;;5036570;28;20418;-69
2024/04/06 11:55:11;;;;;;;2.70;1.50;;;27.80;99.90;;;;;;5036567;28;20108;-69
2024/04/06 11:57:37;;;;;;;3.15;1.35;;;28.20;99.90;;;;;;5036432;28;20083;-69
2024/04/06 12:00:04;;;;;;;3.22;1.73;;;28.10;99.90;;;;;;5036484;28;20065;-69
2024/04/06 12:02:30;;;;;;;2.78;1.50;;;27.90;99.90;;;;;;5035879;28;20022;-69
2024/04/06 12:04:56;;;;;;;2.88;1.10;;;27.80;99.90;;;;;;5036364;28;20098;-69
2024/04/06 12:07:22;;;;;;;2.80;1.83;;;28.10;99.90;;;;;;5036280;28;20053;-69
2024/04/06 12:09:47;;;;;;;4.30;1.63;;;28.10;99.90;;;;;;5036300;28;20490;-69
2024/04/06 12:12:13;;;;;;;2.55;1.48;;;27.80;99.90;;;;;;5036249;28;20373;-69
2024/04/06 12:14:39;;;;;;;5.10;1.40;;;28.00;99.90;;;;;;5036275;28;20075;-68
2024/04/06 12:17:10;;;;;;;2.63;1.30;;;27.70;99.90;;;;;;5036030;28;20037;-68
2024/04/06 12:19:36;;;;;;;1.60;1.30;;;27.80;99.90;;;;;;5035847;28;20029;-68
2024/04/06 12:22:01;;;;;;;2.65;1.20;;;27.70;99.90;;;;;;5035828;28;20034;-67
2024/04/06 12:24:30;;;;;;;3.72;1.55;;;27.60;99.90;;;;;;5035810;28;20024;-68
2024/04/06 12:26:56;;;;;;;4.10;1.40;;;27.60;99.90;;;;;;5035505;28;20022;-68
2024/04/06 12:29:21;;;;;;;3.28;1.20;;;28.00;99.90;;;;;;5035955;28;20396;-68
2024/04/06 12:31:47;;;;;;;1.80;1.38;;;28.40;99.90;;;;;;5035944;28;20030;-68
2024/04/06 12:34:12;;;;;;;3.05;1.20;;;28.40;99.90;;;;;;5035915;28;20071;-68
2024/04/06 12:36:38;;;;;;;2.17;1.40;;;28.60;99.90;;;;;;5035806;28;20041;-68
2024/04/06 12:39:08;;;;;;;1.38;1.20;;;28.70;99.90;;;;;;5035666;28;20052;-66
2024/04/06 12:41:34;;;;;;;2.28;1.10;;;28.60;99.90;;;;;;5035554;28;20124;-67
2024/04/06 12:43:59;;;;;;;3.92;0.95;;;28.00;1.00;;;;;;5035583;28;20103;-67
2024/04/06 12:46:25;;;;;;;3.92;1.10;;;27.80;99.90;;;;;;5034909;28;20030;-67